Time;durP1;ratioP1;P1;durP2;ratioP2;P2;SDS_P1;SDS_P2;PMS_P1;PMS_P2;Temp;Humidity;BMP_temperature;BMP_pressure;BME280_temperature;BME280_humidity;BME280_pressure;Samples;Min_cycle;Max_cycle;Signal;HPM_P1;HPM_P2
2021/11/12 00:13:21;;;;;;;14.98;9.30;;;;;;;3.79;58.13;101856.00;7974455;28;20040;-68
2021/11/12 00:17:13;;;;;;;15.50;8.27;;;;;;;3.79;57.89;101857.72;7973948;28;20072;-68
2021/11/12 00:21:06;;;;;;;17.33;9.27;;;;;;;3.69;57.75;101844.09;7974285;28;20030;-68
2021/11/12 00:25:01;;;;;;;18.55;9.98;;;;;;;3.66;58.12;101848.50;7974049;28;20035;-67
2021/11/12 00:28:55;;;;;;;18.60;8.88;;;;;;;3.61;57.93;101845.16;7974413;28;20116;-68
2021/11/12 00:32:58;;;;;;;14.50;9.70;;;;;;;3.56;57.80;101839.19;7972833;28;20034;-68
2021/11/12 00:36:59;;;;;;;17.48;9.00;;;;;;;3.48;58.06;101836.78;7973260;28;20118;-68
2021/11/12 00:44:59;;;;;;;12.43;7.80;;;;;;;3.45;58.15;101862.78;7972380;28;20037;-67
2021/11/12 00:48:55;;;;;;;15.98;7.85;;;;;;;3.37;57.90;101856.91;7971432;28;20063;-68
2021/11/12 00:56:41;;;;;;;13.68;7.45;;;;;;;3.31;57.91;101860.50;7974192;28;20038;-68
2021/11/12 01:00:33;;;;;;;14.40;8.07;;;;;;;3.33;58.20;101863.91;7956180;28;20045;-67
2021/11/12 01:04:23;;;;;;;15.32;8.93;;;;;;;3.30;57.97;101850.13;7972707;28;20037;-67
2021/11/12 01:08:14;;;;;;;17.88;8.38;;;;;;;3.28;58.30;101847.53;7971544;28;20032;-67
2021/11/12 01:12:06;;;;;;;14.63;9.18;;;;;;;3.23;58.07;101843.31;7971344;28;20021;-67
2021/11/12 01:15:57;;;;;;;13.25;8.48;;;;;;;3.20;57.89;101846.00;7973013;28;20095;-68
2021/11/12 01:19:48;;;;;;;14.75;7.63;;;;;;;3.15;58.17;101840.88;7971674;28;20029;-67
2021/11/12 01:23:42;;;;;;;14.20;8.40;;;;;;;3.14;57.95;101846.09;7972055;28;20030;-68
2021/11/12 01:27:34;;;;;;;12.13;7.97;;;;;;;3.10;58.14;101839.25;7972229;28;20038;-68
2021/11/12 01:31:28;;;;;;;12.52;7.82;;;;;;;3.08;58.43;101841.88;7972475;28;20064;-68
2021/11/12 01:35:20;;;;;;;14.77;8.95;;;;;;;3.10;57.95;101836.66;7972531;28;20188;-68
2021/11/12 01:39:20;;;;;;;16.15;8.98;;;;;;;3.08;58.02;101828.88;7972401;28;20025;-68
2021/11/12 01:43:19;;;;;;;13.52;8.32;;;;;;;3.06;58.10;101820.28;7970268;28;20155;-67
2021/11/12 01:55:14;;;;;;;14.80;9.05;;;;;;;2.94;57.93;101798.91;7970252;28;20022;-68
2021/11/12 02:02:59;;;;;;;13.55;8.13;;;;;;;2.88;58.05;101786.91;7971276;28;20505;-67
2021/11/12 02:06:50;;;;;;;14.63;8.27;;;;;;;2.80;57.99;101778.41;7971782;28;20041;-68
2021/11/12 02:10:41;;;;;;;12.00;7.53;;;;;;;2.82;58.30;101777.53;7971370;28;20549;-68
2021/11/12 02:14:33;;;;;;;12.05;7.53;;;;;;;2.78;58.16;101773.28;7971675;28;20048;-68
2021/11/12 02:18:32;;;;;;;12.68;8.75;;;;;;;2.75;57.85;101770.72;7971768;28;20037;-67
2021/11/12 02:22:26;;;;;;;12.02;7.65;;;;;;;2.66;58.09;101757.91;7970122;28;20742;-69
2021/11/12 02:26:23;;;;;;;13.43;8.02;;;;;;;2.67;57.98;101751.84;7971608;28;20034;-68
2021/11/12 02:30:22;;;;;;;12.88;7.38;;;;;;;2.63;58.38;101751.94;7963844;28;20029;-68
2021/11/12 02:34:14;;;;;;;10.98;7.13;;;;;;;2.59;58.24;101751.13;7963869;28;20037;-68
2021/11/12 02:38:04;;;;;;;12.07;7.32;;;;;;;2.51;58.17;101750.44;7971142;28;20033;-68
2021/11/12 02:41:55;;;;;;;9.45;6.40;;;;;;;2.50;58.10;101753.03;7971494;28;20176;-68
2021/11/12 02:45:46;;;;;;;11.20;7.18;;;;;;;2.48;58.30;101741.84;7971088;28;20065;-68
2021/11/12 02:49:37;;;;;;;10.85;7.35;;;;;;;2.45;57.98;101747.97;7971474;28;20383;-68
2021/11/12 02:53:27;;;;;;;9.30;6.10;;;;;;;2.41;57.95;101752.31;7969223;28;20099;-68
2021/11/12 02:57:20;;;;;;;8.00;5.65;;;;;;;2.39;58.39;101751.53;7970748;28;20124;-68
2021/11/12 03:01:11;;;;;;;9.13;6.43;;;;;;;2.36;58.16;101746.41;7974712;28;20112;-67
2021/11/12 03:05:03;;;;;;;9.15;5.25;;;;;;;2.33;57.82;101742.97;7976750;28;20025;-67
2021/11/12 03:09:01;;;;;;;9.63;5.47;;;;;;;2.32;58.08;101728.31;7977142;28;20029;-67
2021/11/12 03:12:52;;;;;;;6.75;5.55;;;;;;;2.26;57.93;101721.50;7973637;28;20121;-68
2021/11/12 03:16:43;;;;;;;8.40;5.55;;;;;;;2.32;58.19;101718.81;7976157;28;20036;-68
2021/11/12 03:20:34;;;;;;;8.30;5.88;;;;;;;2.33;58.25;101720.50;7976458;28;20048;-68
2021/11/12 03:24:29;;;;;;;8.98;5.60;;;;;;;2.29;58.13;101723.19;7976093;28;20118;-67
2021/11/12 05:56:25;;;;;;;19.98;6.43;;;;;;;2.83;59.99;101602.75;7971434;28;20045;-68
2021/11/12 06:00:18;;;;;;;13.45;7.43;;;;;;;2.86;59.80;101591.47;7972288;28;20697;-68
2021/11/12 06:04:10;;;;;;;16.52;7.72;;;;;;;2.88;60.15;101585.34;7971192;28;20397;-67
2021/11/12 06:08:00;;;;;;;16.25;7.32;;;;;;;2.90;60.19;101582.72;7971864;28;20435;-67
2021/11/12 06:11:54;;;;;;;14.90;6.57;;;;;;;2.91;60.08;101573.19;7970447;28;20044;-67
2021/11/12 06:15:45;;;;;;;12.25;6.80;;;;;;;2.92;60.16;101561.91;7971170;28;20029;-67
2021/11/12 06:19:36;;;;;;;11.00;5.82;;;;;;;2.96;60.15;101560.94;7971979;28;20045;-67
2021/11/12 06:23:27;;;;;;;16.48;7.75;;;;;;;2.99;60.37;101571.25;7971120;28;20033;-67
2021/11/12 06:27:18;;;;;;;15.27;8.60;;;;;;;3.00;60.41;101550.44;7971735;28;20379;-67
2021/11/12 06:31:09;;;;;;;13.77;7.35;;;;;;;3.02;60.29;101553.00;7971300;28;20514;-67
2021/11/12 06:35:00;;;;;;;16.63;9.02;;;;;;;3.06;60.19;101557.25;7973204;28;20033;-67
2021/11/12 06:38:52;;;;;;;15.48;8.32;;;;;;;3.07;60.21;101544.25;7977640;28;20108;-67
2021/11/12 06:42:50;;;;;;;13.93;7.55;;;;;;;3.07;60.34;101536.44;7975674;28;20033;-67
2021/11/12 06:50:50;;;;;;;14.98;8.50;;;;;;;3.04;60.60;101522.66;7976976;28;20023;-67
2021/11/12 06:54:41;;;;;;;11.77;6.55;;;;;;;3.03;60.12;101532.22;7976459;28;20025;-67
2021/11/12 06:58:32;;;;;;;16.17;8.65;;;;;;;3.03;60.44;101537.41;7975558;28;20470;-67
2021/11/12 07:02:24;;;;;;;12.95;8.02;;;;;;;3.00;60.41;101537.47;7975184;28;20053;-67
2021/11/12 07:06:14;;;;;;;14.63;7.00;;;;;;;3.00;60.38;101545.25;7976546;28;20033;-67
2021/11/12 07:10:08;;;;;;;13.70;7.97;;;;;;;3.05;60.20;101547.75;7976717;28;20083;-67
2021/11/12 07:13:59;;;;;;;12.15;7.18;;;;;;;3.08;60.20;101539.88;7976256;28;20076;-67
2021/11/12 07:17:49;;;;;;;14.45;6.82;;;;;;;3.11;60.13;101532.03;7976332;28;20120;-67
2021/11/12 07:21:40;;;;;;;13.30;7.57;;;;;;;3.11;60.43;101519.91;7975681;28;20098;-67
2021/11/12 07:25:31;;;;;;;12.55;7.32;;;;;;;3.13;60.63;101512.06;7975858;28;20041;-66
2021/11/12 07:29:24;;;;;;;11.30;6.97;;;;;;;3.16;60.71;101501.59;7956904;28;20052;-67
2021/11/12 07:33:15;;;;;;;13.50;7.45;;;;;;;3.14;60.38;101503.38;7974924;28;20068;-66
2021/11/12 07:37:15;;;;;;;12.80;7.15;;;;;;;3.12;60.52;101506.00;7976016;28;20386;-66
2021/11/12 07:45:40;;;;;;;12.73;7.38;;;;;;;3.22;60.66;101498.84;7950639;28;20648;-66
2021/11/12 07:49:31;;;;;;;14.68;7.90;;;;;;;3.17;60.45;101496.38;7969445;28;20030;-66
2021/11/12 07:53:22;;;;;;;13.15;7.50;;;;;;;3.23;60.51;101513.53;7974541;28;20060;-66
2021/11/12 07:57:12;;;;;;;11.70;6.85;;;;;;;3.25;60.70;101516.94;7975361;28;20033;-66
2021/11/12 08:01:03;;;;;;;15.05;8.35;;;;;;;3.29;60.47;101508.22;7971406;28;20025;-66
2021/11/12 08:05:02;;;;;;;13.68;7.80;;;;;;;3.32;60.53;101510.75;7972003;28;20573;-67
2021/11/12 08:09:05;;;;;;;13.60;8.02;;;;;;;3.35;60.69;101508.06;7975365;28;20034;-66
2021/11/12 08:21:55;;;;;;;10.25;6.95;;;;;;;3.44;60.78;101513.03;7974558;28;20030;-66
2021/11/12 08:25:25;;;;;;;11.02;7.18;;;;;;;3.44;60.54;101513.03;7974032;28;20046;-67
2021/11/12 08:29:38;;;;;;;11.52;6.82;;;;;;;3.50;60.62;101501.59;7973759;28;20037;-66
2021/11/12 08:33:41;;;;;;;10.60;7.00;;;;;;;3.51;60.46;101509.38;7974101;28;20068;-66
2021/11/12 08:42:23;;;;;;;19.90;9.02;;;;;;;3.58;60.64;101515.25;7970510;28;20021;-66
2021/11/12 08:49:44;;;;;;;14.98;8.30;;;;;;;3.65;60.59;101506.41;7971044;28;20056;-66
2021/11/12 08:53:34;;;;;;;17.30;9.55;;;;;;;3.66;60.60;101514.13;7972515;28;20029;-66
2021/11/12 08:57:25;;;;;;;11.82;8.00;;;;;;;3.70;60.48;101514.91;7971764;28;20051;-66
2021/11/12 09:01:16;;;;;;;17.75;9.30;;;;;;;3.71;60.55;101499.28;7960670;28;20033;-66
2021/11/12 09:05:07;;;;;;;16.65;9.07;;;;;;;3.73;60.47;101492.31;7971005;28;20053;-67
2021/11/12 09:08:58;;;;;;;13.30;7.20;;;;;;;3.77;60.41;101495.69;7971337;28;20494;-66
2021/11/12 09:12:55;;;;;;;16.10;9.85;;;;;;;3.79;60.49;101493.88;7971441;28;20033;-67
2021/11/12 09:16:47;;;;;;;17.73;8.93;;;;;;;3.78;60.30;101498.22;7968165;28;20037;-67
2021/11/12 09:20:38;;;;;;;20.98;9.68;;;;;;;3.79;60.46;101489.53;7970691;28;20082;-67
2021/11/12 09:24:28;;;;;;;16.75;9.88;;;;;;;3.82;60.69;101485.16;7970526;28;20597;-67
2021/11/12 09:28:19;;;;;;;17.60;10.32;;;;;;;3.86;60.44;101485.03;7972395;28;20041;-66
2021/11/12 09:32:11;;;;;;;19.83;9.90;;;;;;;3.88;60.34;101482.38;7971179;28;20037;-66
2021/11/12 09:36:02;;;;;;;18.98;10.65;;;;;;;3.89;60.38;101466.72;7971982;28;20029;-66
2021/11/12 09:39:57;;;;;;;17.50;9.77;;;;;;;3.92;60.44;101461.44;7971311;28;20112;-66
2021/11/12 09:43:48;;;;;;;21.15;11.52;;;;;;;3.92;60.42;101445.00;7966313;28;20371;-66
2021/11/12 09:47:40;;;;;;;18.35;10.60;;;;;;;3.90;60.60;101431.19;7971210;28;20044;-67
2021/11/12 09:51:31;;;;;;;19.20;11.63;;;;;;;3.90;60.18;101424.25;7970508;28;20065;-67
2021/11/12 09:55:23;;;;;;;15.18;9.77;;;;;;;3.92;60.33;101416.41;7966503;28;20655;-68
2021/11/12 09:59:13;;;;;;;18.08;10.23;;;;;;;3.94;60.30;101414.63;7968258;28;20029;-68
2021/11/12 10:03:07;;;;;;;15.48;9.20;;;;;;;3.97;60.36;101410.16;7970581;28;20033;-68
2021/11/12 10:06:58;;;;;;;12.23;8.48;;;;;;;3.99;60.39;101386.72;7970095;28;20131;-67
2021/11/12 10:10:51;;;;;;;16.60;9.48;;;;;;;4.09;60.36;101396.78;7969061;28;20148;-67
2021/11/12 10:14:57;;;;;;;13.40;8.88;;;;;;;4.09;60.41;101382.94;7970133;28;20076;-67
2021/11/12 10:19:07;;;;;;;12.93;8.63;;;;;;;4.10;60.39;101402.84;7966976;28;20029;-67
2021/11/12 10:22:57;;;;;;;12.35;7.68;;;;;;;4.15;60.31;101414.78;7967291;28;20076;-67
2021/11/12 10:27:10;;;;;;;11.15;7.78;;;;;;;4.20;60.23;101393.84;7965733;28;20037;-67
2021/11/12 10:31:20;;;;;;;11.98;7.95;;;;;;;4.20;60.21;101399.06;7967685;28;20025;-67
2021/11/12 10:35:28;;;;;;;13.52;7.93;;;;;;;4.27;60.41;101397.97;7969765;28;20036;-67
2021/11/12 10:39:26;;;;;;;;;;;;;;;4.24;60.40;101385.06;7967661;28;20067;-67
2021/11/12 10:43:23;;;;;;;14.30;8.00;;;;;;;4.28;60.41;101382.31;7967673;28;19967;-67
2021/11/12 10:47:16;;;;;;;11.90;8.43;;;;;;;4.36;60.45;101376.03;7965931;28;20159;-66
2021/11/12 10:51:15;;;;;;;12.45;8.07;;;;;;;4.40;60.38;101365.44;7968916;28;20120;-67
2021/11/12 10:55:17;;;;;;;11.00;8.05;;;;;;;4.46;60.41;101354.84;7969803;28;20040;-67
2021/11/12 10:59:07;;;;;;;13.65;8.02;;;;;;;4.52;60.44;101354.66;7970201;28;20108;-68
2021/11/12 11:03:04;;;;;;;11.95;7.65;;;;;;;4.59;60.38;101358.75;7967406;28;20051;-67
2021/11/12 11:06:54;;;;;;;11.93;7.60;;;;;;;4.67;60.42;101351.53;7968103;28;20056;-68
2021/11/12 11:11:02;;;;;;;11.65;8.02;;;;;;;4.79;60.35;101345.06;7969376;28;20522;-67
2021/11/12 11:14:53;;;;;;;12.75;7.53;;;;;;;4.89;60.46;101345.59;7962604;28;20025;-67
2021/11/12 11:18:46;;;;;;;10.48;7.68;;;;;;;5.00;60.38;101343.47;7963330;28;21010;-67
2021/11/12 11:22:48;;;;;;;11.07;7.53;;;;;;;5.05;60.58;101342.41;7970382;28;20124;-67
2021/11/12 11:26:49;;;;;;;11.30;8.05;;;;;;;5.04;60.42;101322.47;7973803;28;20060;-67
2021/11/12 11:30:40;;;;;;;11.48;7.22;;;;;;;5.02;60.43;101305.22;7973754;28;20041;-67
2021/11/12 11:34:30;;;;;;;10.70;7.60;;;;;;;4.94;60.18;101297.66;7972441;28;20402;-67
2021/11/12 11:38:27;;;;;;;10.70;6.97;;;;;;;4.87;60.31;101292.72;7975207;28;20037;-67
2021/11/12 11:42:17;;;;;;;10.60;7.22;;;;;;;4.86;60.23;101304.03;7972129;28;20106;-68
2021/11/12 11:46:12;;;;;;;11.52;8.50;;;;;;;4.86;60.26;101301.44;7974002;28;20033;-67
2021/11/12 11:50:23;;;;;;;11.25;7.65;;;;;;;4.84;60.27;101290.25;7972204;28;20021;-67
2021/11/12 11:54:14;;;;;;;10.65;7.68;;;;;;;4.85;60.28;101285.00;7973471;28;20032;-67
2021/11/12 11:58:34;;;;;;;11.27;7.75;;;;;;;4.83;60.73;101267.72;7973592;28;20042;-67
2021/11/12 12:02:25;;;;;;;10.93;7.25;;;;;;;4.84;60.83;101248.59;7969629;28;20044;-67
2021/11/12 12:06:18;;;;;;;12.18;8.23;;;;;;;4.85;60.80;101245.94;7973677;28;20037;-67
2021/11/12 12:10:16;;;;;;;11.93;7.55;;;;;;;4.89;60.56;101257.09;7971323;28;20033;-67
2021/11/12 12:14:18;;;;;;;12.55;6.72;;;;;;;4.93;60.80;101246.50;7955992;28;20120;-67
2021/11/12 12:18:12;;;;;;;11.48;7.13;;;;;;;4.97;61.02;101252.44;7974031;28;20056;-66
2021/11/12 12:22:14;;;;;;;8.95;6.32;;;;;;;5.01;61.14;101249.69;7971754;28;20030;-67
2021/11/12 13:27:06;;;;;;;11.70;7.13;;;;;;;6.06;61.01;101156.88;7968285;28;20029;-67
2021/11/12 13:31:03;;;;;;;9.38;5.85;;;;;;;6.13;60.81;101149.66;7970597;28;20685;-67
2021/11/12 13:34:53;;;;;;;12.80;7.05;;;;;;;6.19;61.00;101152.84;7967874;28;20033;-67
2021/11/12 13:38:47;;;;;;;8.25;5.85;;;;;;;6.25;61.02;101163.00;7971275;28;20037;-67
2021/11/12 13:42:43;;;;;;;8.43;5.70;;;;;;;6.25;61.02;101146.50;7970465;28;20040;-67
2021/11/12 13:47:03;;;;;;;9.15;6.57;;;;;;;6.34;60.77;101146.97;7971649;28;20041;-67
2021/11/12 13:50:55;;;;;;;10.38;6.63;;;;;;;6.37;60.83;101132.94;7969797;28;20033;-67
2021/11/12 13:54:52;;;;;;;8.38;5.75;;;;;;;6.41;60.88;101127.50;7968376;28;20461;-67
2021/11/12 13:58:44;;;;;;;11.60;6.35;;;;;;;6.46;60.47;101122.09;7966729;28;20660;-67
2021/11/12 14:02:52;;;;;;;16.42;8.27;;;;;;;6.46;60.52;101111.66;7967517;28;20034;-67
2021/11/12 14:06:42;;;;;;;9.15;6.88;;;;;;;6.49;60.44;101107.13;7967516;28;20041;-68
2021/11/12 14:10:37;;;;;;;11.30;6.10;;;;;;;6.51;60.75;101105.28;7969102;28;20414;-67
2021/11/12 14:14:29;;;;;;;12.57;7.45;;;;;;;6.53;60.31;101100.84;7965378;28;20037;-68
2021/11/12 14:22:47;;;;;;;10.68;6.47;;;;;;;6.51;60.42;101084.41;7968386;28;20018;-67
2021/11/12 14:26:51;;;;;;;11.85;6.35;;;;;;;6.55;60.41;101077.31;7965200;28;20103;-67
2021/11/12 14:51:58;;;;;;;8.63;5.90;;;;;;;6.50;59.97;101038.38;7967969;28;20033;-67
2021/11/12 14:56:06;;;;;;;9.38;5.28;;;;;;;6.50;59.82;101040.97;7966823;28;20037;-67
2021/11/12 15:00:05;;;;;;;10.90;6.55;;;;;;;6.48;59.63;101040.19;7974811;28;20033;-67
2021/11/12 15:03:56;;;;;;;8.82;5.47;;;;;;;6.44;60.32;101028.19;7974914;28;20048;-67
2021/11/12 15:08:29;;;;;;;7.95;5.43;;;;;;;6.48;60.08;101024.53;7969099;28;20421;-67
2021/11/12 15:12:02;;;;;;;7.13;5.53;;;;;;;6.47;59.72;101030.66;7971021;28;20087;-68
2021/11/12 15:15:53;;;;;;;9.18;5.50;;;;;;;6.46;59.86;101020.31;7974216;28;20030;-66
2021/11/12 15:19:46;;;;;;;9.23;5.93;;;;;;;6.41;59.90;101017.91;7974714;28;20029;-67
2021/11/12 15:23:54;;;;;;;11.07;5.40;;;;;;;6.42;59.70;101032.66;7973069;28;20518;-67
2021/11/12 15:35:53;;;;;;;8.23;5.70;;;;;;;6.33;59.34;101029.59;7972442;28;20441;-67
2021/11/12 15:43:43;;;;;;;8.25;5.78;;;;;;;6.22;59.42;101014.47;7973578;28;20029;-67
2021/11/12 15:47:40;;;;;;;10.30;5.13;;;;;;;6.24;59.24;101012.59;7974490;28;20033;-67
2021/11/12 15:51:40;;;;;;;9.10;5.43;;;;;;;6.20;59.36;101018.88;7971173;28;20036;-67
2021/11/12 15:56:11;;;;;;;7.65;4.82;;;;;;;6.17;59.22;101021.63;7971014;28;20060;-67
2021/11/12 16:04:08;;;;;;;7.78;5.80;;;;;;;6.11;59.09;101022.75;7971552;28;20658;-66
2021/11/12 16:24:01;;;;;;;7.55;5.32;;;;;;;5.97;59.23;101011.25;7968230;28;20029;-68
2021/11/12 16:27:55;;;;;;;7.72;5.07;;;;;;;5.92;59.18;101002.78;7973189;28;20025;-67
2021/11/12 16:31:47;;;;;;;7.68;4.70;;;;;;;5.90;59.30;100999.38;7974346;28;20039;-68
2021/11/12 16:35:38;;;;;;;8.60;5.57;;;;;;;5.87;59.59;100992.56;7971324;28;20045;-68
2021/11/12 16:39:55;;;;;;;9.60;5.20;;;;;;;5.84;58.95;100986.63;7971020;28;20080;-68
2021/11/12 17:07:57;;;;;;;10.25;6.65;;;;;;;5.58;58.82;100935.66;7968681;28;20033;-68
2021/11/12 17:19:41;;;;;;;10.45;6.95;;;;;;;5.47;58.99;100920.50;7969224;28;20056;-67
2021/11/12 17:48:38;;;;;;;9.75;6.43;;;;;;;5.22;58.48;100932.06;7968992;28;20037;-67
2021/11/12 18:21:38;;;;;;;8.13;5.53;;;;;;;4.96;58.46;100912.28;7966533;28;20052;-71
2021/11/12 21:47:30;;;;;;;10.85;5.63;;;;;;;5.40;59.04;100880.00;7970989;28;20036;-71
2021/11/12 21:51:24;;;;;;;9.60;5.82;;;;;;;5.48;58.98;100893.53;7970445;28;20043;-71
2021/11/12 21:55:15;;;;;;;10.07;5.35;;;;;;;5.50;59.03;100881.28;7971028;28;20040;-71
2021/11/12 21:59:07;;;;;;;7.85;4.55;;;;;;;5.54;59.25;100874.16;7955814;28;20032;-70
2021/11/12 22:02:58;;;;;;;8.05;4.88;;;;;;;5.53;59.11;100860.28;7968572;28;20090;-70
2021/11/12 22:06:50;;;;;;;6.55;4.40;;;;;;;5.59;59.44;100847.00;7968410;28;20036;-70
2021/11/12 22:10:43;;;;;;;6.72;4.75;;;;;;;5.58;59.30;100834.88;7968611;28;20047;-70
2021/11/12 22:14:33;;;;;;;8.30;4.93;;;;;;;5.63;59.39;100832.91;7969514;28;20053;-69
2021/11/12 22:18:25;;;;;;;8.35;4.78;;;;;;;5.68;59.37;100829.25;7970435;28;20034;-72
2021/11/12 22:22:16;;;;;;;10.25;5.90;;;;;;;5.68;59.64;100832.69;7967750;28;20076;-72
2021/11/12 22:26:07;;;;;;;7.40;4.90;;;;;;;5.68;59.47;100829.25;7969384;28;20033;-68
2021/11/12 22:29:57;;;;;;;8.32;5.03;;;;;;;5.72;59.50;100833.41;7969397;28;20068;-68
2021/11/12 22:33:48;;;;;;;8.35;5.22;;;;;;;5.73;59.67;100832.47;7967202;28;20025;-67
2021/11/12 22:37:40;;;;;;;7.85;4.93;;;;;;;5.71;59.41;100829.09;7967289;28;20269;-69
2021/11/12 22:41:30;;;;;;;8.93;5.07;;;;;;;5.72;59.65;100821.22;7972266;28;20048;-68
2021/11/12 22:45:21;;;;;;;9.10;5.15;;;;;;;5.70;59.60;100817.81;7970360;28;20034;-67
2021/11/12 22:49:12;;;;;;;8.77;5.07;;;;;;;5.67;59.24;100825.78;7971335;28;20041;-68
2021/11/12 22:53:04;;;;;;;9.68;5.68;;;;;;;5.68;59.57;100826.63;7971233;28;20391;-68
2021/11/12 22:56:55;;;;;;;9.65;5.60;;;;;;;5.65;59.42;100810.22;7971868;28;20083;-68
2021/11/12 23:00:48;;;;;;;8.27;5.35;;;;;;;5.61;59.02;100794.78;7970701;28;20029;-68
2021/11/12 23:04:40;;;;;;;11.85;5.82;;;;;;;5.52;59.18;100785.63;7970518;28;20386;-68
2021/11/12 23:08:31;;;;;;;9.95;6.13;;;;;;;5.47;59.21;100792.00;7971963;28;20045;-68
2021/11/12 23:12:21;;;;;;;10.57;6.50;;;;;;;5.40;58.95;100800.97;7970524;28;20025;-68
2021/11/12 23:16:15;;;;;;;10.32;5.55;;;;;;;5.38;59.02;100808.03;7964016;28;20025;-67
2021/11/12 23:20:09;;;;;;;11.70;6.35;;;;;;;5.33;59.00;100807.41;7977670;28;20121;-68
2021/11/12 23:24:00;;;;;;;8.95;5.85;;;;;;;5.24;58.87;100813.88;7976391;28;20125;-66
2021/11/12 23:27:50;;;;;;;10.50;5.53;;;;;;;5.22;58.90;100815.72;7976749;28;20041;-66
2021/11/12 23:31:42;;;;;;;11.10;6.43;;;;;;;5.18;59.06;100807.19;7976867;28;20149;-66
2021/11/12 23:35:32;;;;;;;10.60;6.32;;;;;;;5.16;58.82;100806.41;7976248;28;20037;-68
2021/11/12 23:39:23;;;;;;;8.35;5.10;;;;;;;5.13;58.77;100803.91;7976938;28;20029;-68
2021/11/12 23:43:14;;;;;;;9.52;5.38;;;;;;;5.11;58.66;100800.50;7975485;28;20041;-68
2021/11/12 23:47:08;;;;;;;10.75;6.00;;;;;;;5.07;58.86;100788.53;7975687;28;20047;-67
2021/11/12 23:51:02;;;;;;;9.10;5.57;;;;;;;5.05;58.96;100792.13;7975537;28;20091;-67
2021/11/12 23:54:55;;;;;;;9.13;5.88;;;;;;;5.04;58.81;100788.69;7975322;28;20026;-68
2021/11/12 23:58:45;;;;;;;8.75;5.53;;;;;;;5.06;58.88;100791.22;7975871;28;20037;-68
